sensor_id;sensor_type;location;lat;lon;timestamp;pressure;altitude;pressure_sealevel;temperature
75273;BMP280;63869;52.344;16.928;2022-11-20T00:00:29;100318.31;;;3.21
75273;BMP280;63869;52.344;16.928;2022-11-20T00:02:55;100321.69;;;3.21
75273;BMP280;63869;52.344;16.928;2022-11-20T00:05:20;100312.53;;;3.15
75273;BMP280;63869;52.344;16.928;2022-11-20T00:07:46;100312.22;;;3.17
75273;BMP280;63869;52.344;16.928;2022-11-20T00:10:11;100322.84;;;3.24
75273;BMP280;63869;52.344;16.928;2022-11-20T00:12:37;100319.47;;;3.23
75273;BMP280;63869;52.344;16.928;2022-11-20T00:15:03;100318.31;;;3.24
75273;BMP280;63869;52.344;16.928;2022-11-20T00:17:28;100311.16;;;3.25
75273;BMP280;63869;52.344;16.928;2022-11-20T00:19:53;100308.44;;;3.18
75273;BMP280;63869;52.344;16.928;2022-11-20T00:22:19;100313.03;;;3.24
75273;BMP280;63869;52.344;16.928;2022-11-20T00:24:44;100318.31;;;3.24
75273;BMP280;63869;52.344;16.928;2022-11-20T00:27:09;100306.22;;;3.20
75273;BMP280;63869;52.344;16.928;2022-11-20T00:29:34;100310.00;;;3.22
75273;BMP280;63869;52.344;16.928;2022-11-20T00:32:00;100322.13;;;3.27
75273;BMP280;63869;52.344;16.928;2022-11-20T00:34:25;100324.75;;;3.23
75273;BMP280;63869;52.344;16.928;2022-11-20T00:36:50;100308.38;;;3.14
75273;BMP280;63869;52.344;16.928;2022-11-20T00:39:15;100328.88;;;3.24
75273;BMP280;63869;52.344;16.928;2022-11-20T00:41:41;100314.09;;;3.16
75273;BMP280;63869;52.344;16.928;2022-11-20T00:44:06;100326.63;;;3.23
75273;BMP280;63869;52.344;16.928;2022-11-20T00:46:31;100325.09;;;3.22
75273;BMP280;63869;52.344;16.928;2022-11-20T00:48:57;100324.34;;;3.21
75273;BMP280;63869;52.344;16.928;2022-11-20T00:51:24;100294.69;;;3.05
75273;BMP280;63869;52.344;16.928;2022-11-20T00:53:50;100323.53;;;3.17
75273;BMP280;63869;52.344;16.928;2022-11-20T00:56:18;100328.38;;;3.15
75273;BMP280;63869;52.344;16.928;2022-11-20T00:58:45;100325.41;;;3.17
75273;BMP280;63869;52.344;16.928;2022-11-20T01:01:16;100332.16;;;3.14
75273;BMP280;63869;52.344;16.928;2022-11-20T01:03:43;100305.56;;;3.00
75273;BMP280;63869;52.344;16.928;2022-11-20T01:06:18;100302.09;;;2.96
75273;BMP280;63869;52.344;16.928;2022-11-20T01:08:44;100323.41;;;3.10
75273;BMP280;63869;52.344;16.928;2022-11-20T01:11:14;100309.25;;;2.95
75273;BMP280;63869;52.344;16.928;2022-11-20T01:13:40;100309.25;;;2.95
75273;BMP280;63869;52.344;16.928;2022-11-20T01:18:34;100336.44;;;2.99
75273;BMP280;63869;52.344;16.928;2022-11-20T01:21:04;100331.13;;;2.96
75273;BMP280;63869;52.344;16.928;2022-11-20T01:23:35;100311.34;;;2.83
75273;BMP280;63869;52.344;16.928;2022-11-20T01:26:03;100321.13;;;2.82
75273;BMP280;63869;52.344;16.928;2022-11-20T01:28:29;100326.50;;;2.86
75273;BMP280;63869;52.344;16.928;2022-11-20T01:30:55;100320.63;;;2.73
75273;BMP280;63869;52.344;16.928;2022-11-20T01:33:20;100324.84;;;2.78
75273;BMP280;63869;52.344;16.928;2022-11-20T01:35:45;100332.00;;;2.77
75273;BMP280;63869;52.344;16.928;2022-11-20T01:38:11;100330.13;;;2.78
75273;BMP280;63869;52.344;16.928;2022-11-20T01:40:36;100323.66;;;2.75
75273;BMP280;63869;52.344;16.928;2022-11-20T01:43:18;100322.38;;;2.65
75273;BMP280;63869;52.344;16.928;2022-11-20T01:46:15;100303.28;;;2.49
75273;BMP280;63869;52.344;16.928;2022-11-20T01:51:12;100339.06;;;2.69
75273;BMP280;63869;52.344;16.928;2022-11-20T01:53:40;100332.16;;;2.65
75273;BMP280;63869;52.344;16.928;2022-11-20T01:56:10;100335.69;;;2.72
75273;BMP280;63869;52.344;16.928;2022-11-20T01:58:40;100321.22;;;2.63
75273;BMP280;63869;52.344;16.928;2022-11-20T02:01:07;100326.66;;;2.73
75273;BMP280;63869;52.344;16.928;2022-11-20T02:03:32;100319.88;;;2.72
75273;BMP280;63869;52.344;16.928;2022-11-20T02:06:07;100318.75;;;2.73
75273;BMP280;63869;52.344;16.928;2022-11-20T02:08:35;100313.16;;;2.79
75273;BMP280;63869;52.344;16.928;2022-11-20T02:11:01;100310.13;;;2.76
75273;BMP280;63869;52.344;16.928;2022-11-20T02:13:26;100315.81;;;2.79
75273;BMP280;63869;52.344;16.928;2022-11-20T02:16:25;100313.97;;;2.83
75273;BMP280;63869;52.344;16.928;2022-11-20T02:18:52;100318.44;;;2.79
75273;BMP280;63869;52.344;16.928;2022-11-20T02:21:24;100323.78;;;2.82
75273;BMP280;63869;52.344;16.928;2022-11-20T02:24:05;100314.69;;;2.80
75273;BMP280;63869;52.344;16.928;2022-11-20T02:26:37;100279.63;;;2.53
75273;BMP280;63869;52.344;16.928;2022-11-20T02:29:03;100314.59;;;2.72
75273;BMP280;63869;52.344;16.928;2022-11-20T02:31:28;100325.59;;;2.78
75273;BMP280;63869;52.344;16.928;2022-11-20T02:33:56;100316.91;;;2.78
75273;BMP280;63869;52.344;16.928;2022-11-20T02:36:21;100295.22;;;2.65
75273;BMP280;63869;52.344;16.928;2022-11-20T02:38:48;100312.41;;;2.78
75273;BMP280;63869;52.344;16.928;2022-11-20T02:41:14;100293.72;;;2.64
75273;BMP280;63869;52.344;16.928;2022-11-20T02:43:39;100307.88;;;2.79
75273;BMP280;63869;52.344;16.928;2022-11-20T02:46:07;100303.31;;;2.75
75273;BMP280;63869;52.344;16.928;2022-11-20T02:48:32;100285.91;;;2.71
75273;BMP280;63869;52.344;16.928;2022-11-20T02:50:57;100306.38;;;2.78
75273;BMP280;63869;52.344;16.928;2022-11-20T02:53:23;100298.34;;;2.70
75273;BMP280;63869;52.344;16.928;2022-11-20T02:55:48;100289.72;;;2.73
75273;BMP280;63869;52.344;16.928;2022-11-20T02:58:14;100307.47;;;2.76
75273;BMP280;63869;52.344;16.928;2022-11-20T03:00:39;100292.72;;;2.72
75273;BMP280;63869;52.344;16.928;2022-11-20T03:03:04;100295.41;;;2.75
75273;BMP280;63869;52.344;16.928;2022-11-20T03:05:29;100292.75;;;2.75
75273;BMP280;63869;52.344;16.928;2022-11-20T03:07:55;100285.84;;;2.67
75273;BMP280;63869;52.344;16.928;2022-11-20T03:10:20;100289.75;;;2.77
75273;BMP280;63869;52.344;16.928;2022-11-20T03:12:45;100262.44;;;2.62
75273;BMP280;63869;52.344;16.928;2022-11-20T03:15:11;100276.88;;;2.72
75273;BMP280;63869;52.344;16.928;2022-11-20T03:17:36;100279.13;;;2.70
75273;BMP280;63869;52.344;16.928;2022-11-20T03:20:01;100282.88;;;2.69
75273;BMP280;63869;52.344;16.928;2022-11-20T03:22:29;100268.78;;;2.58
75273;BMP280;63869;52.344;16.928;2022-11-20T03:24:55;100293.13;;;2.74
75273;BMP280;63869;52.344;16.928;2022-11-20T03:27:20;100287.38;;;2.68
75273;BMP280;63869;52.344;16.928;2022-11-20T03:29:45;100297.28;;;2.75
75273;BMP280;63869;52.344;16.928;2022-11-20T03:32:10;100291.97;;;2.71
75273;BMP280;63869;52.344;16.928;2022-11-20T03:34:36;100288.59;;;2.74
75273;BMP280;63869;52.344;16.928;2022-11-20T03:37:01;100294.28;;;2.76
75273;BMP280;63869;52.344;16.928;2022-11-20T03:39:26;100284.84;;;2.75
75273;BMP280;63869;52.344;16.928;2022-11-20T03:41:51;100286.69;;;2.71
75273;BMP280;63869;52.344;16.928;2022-11-20T03:44:17;100306.00;;;2.79
75273;BMP280;63869;52.344;16.928;2022-11-20T03:46:42;100293.84;;;2.71
75273;BMP280;63869;52.344;16.928;2022-11-20T03:49:07;100310.94;;;2.81
75273;BMP280;63869;52.344;16.928;2022-11-20T03:51:35;100301.91;;;2.82
75273;BMP280;63869;52.344;16.928;2022-11-20T03:54:03;100275.22;;;2.60
75273;BMP280;63869;52.344;16.928;2022-11-20T03:56:31;100274.41;;;2.56
75273;BMP280;63869;52.344;16.928;2022-11-20T03:58:57;100307.19;;;2.82
75273;BMP280;63869;52.344;16.928;2022-11-20T04:01:25;100300.44;;;2.84
75273;BMP280;63869;52.344;16.928;2022-11-20T04:03:52;100298.13;;;2.83
75273;BMP280;63869;52.344;16.928;2022-11-20T04:06:20;100308.41;;;2.88
75273;BMP280;63869;52.344;16.928;2022-11-20T04:08:45;100294.38;;;2.84
75273;BMP280;63869;52.344;16.928;2022-11-20T04:11:19;100302.44;;;2.91
75273;BMP280;63869;52.344;16.928;2022-11-20T04:13:50;100260.91;;;2.61
75273;BMP280;63869;52.344;16.928;2022-11-20T04:16:16;100309.63;;;2.94
75273;BMP280;63869;52.344;16.928;2022-11-20T04:18:42;100309.25;;;2.95
75273;BMP280;63869;52.344;16.928;2022-11-20T04:21:08;100302.06;;;2.92
75273;BMP280;63869;52.344;16.928;2022-11-20T04:23:34;100303.19;;;2.95
75273;BMP280;63869;52.344;16.928;2022-11-20T04:26:04;100281.25;;;2.87
75273;BMP280;63869;52.344;16.928;2022-11-20T04:28:30;100300.69;;;3.02
75273;BMP280;63869;52.344;16.928;2022-11-20T04:31:01;100301.81;;;3.01
75273;BMP280;63869;52.344;16.928;2022-11-20T04:33:27;100293.44;;;2.99
75273;BMP280;63869;52.344;16.928;2022-11-20T04:35:52;100298.44;;;3.04
75273;BMP280;63869;52.344;16.928;2022-11-20T04:38:17;100299.19;;;3.04
75273;BMP280;63869;52.344;16.928;2022-11-20T04:40:42;100292.75;;;3.02
75273;BMP280;63869;52.344;16.928;2022-11-20T04:43:08;100288.16;;;2.99
75273;BMP280;63869;52.344;16.928;2022-11-20T04:45:33;100286.75;;;3.05
75273;BMP280;63869;52.344;16.928;2022-11-20T04:47:58;100284.78;;;2.98
75273;BMP280;63869;52.344;16.928;2022-11-20T04:50:23;100285.97;;;3.01
75273;BMP280;63869;52.344;16.928;2022-11-20T04:52:49;100295.84;;;3.07
75273;BMP280;63869;52.344;16.928;2022-11-20T04:55:14;100284.94;;;3.09
75273;BMP280;63869;52.344;16.928;2022-11-20T04:57:39;100286.44;;;3.10
75273;BMP280;63869;52.344;16.928;2022-11-20T05:00:05;100284.94;;;3.09
75273;BMP280;63869;52.344;16.928;2022-11-20T05:02:31;100281.22;;;3.14
75273;BMP280;63869;52.344;16.928;2022-11-20T05:04:56;100284.59;;;3.14
75273;BMP280;63869;52.344;16.928;2022-11-20T05:07:22;100283.50;;;3.15
75273;BMP280;63869;52.344;16.928;2022-11-20T05:09:47;100282.41;;;3.16
75273;BMP280;63869;52.344;16.928;2022-11-20T05:12:12;100279.41;;;3.18
75273;BMP280;63869;52.344;16.928;2022-11-20T05:14:38;100270.28;;;3.15
75273;BMP280;63869;52.344;16.928;2022-11-20T05:17:03;100274.88;;;3.18
75273;BMP280;63869;52.344;16.928;2022-11-20T05:19:28;100271.06;;;3.16
75273;BMP280;63869;52.344;16.928;2022-11-20T05:21:53;100270.00;;;3.20
75273;BMP280;63869;52.344;16.928;2022-11-20T05:24:19;100259.69;;;3.12
75273;BMP280;63869;52.344;16.928;2022-11-20T05:26:44;100266.97;;;3.18
75273;BMP280;63869;52.344;16.928;2022-11-20T05:29:12;100282.50;;;3.23
75273;BMP280;63869;52.344;16.928;2022-11-20T05:31:39;100279.09;;;3.23
75273;BMP280;63869;52.344;16.928;2022-11-20T05:34:05;100276.41;;;3.19
75273;BMP280;63869;52.344;16.928;2022-11-20T05:36:31;100281.34;;;3.24
75273;BMP280;63869;52.344;16.928;2022-11-20T05:38:56;100280.22;;;3.25
75273;BMP280;63869;52.344;16.928;2022-11-20T05:41:21;100273.03;;;3.22
75273;BMP280;63869;52.344;16.928;2022-11-20T05:43:48;100264.38;;;3.25
75273;BMP280;63869;52.344;16.928;2022-11-20T05:46:15;100257.44;;;3.14
75273;BMP280;63869;52.344;16.928;2022-11-20T05:48:42;100274.19;;;3.25
75273;BMP280;63869;52.344;16.928;2022-11-20T05:51:09;100280.97;;;3.26
75273;BMP280;63869;52.344;16.928;2022-11-20T05:53:35;100274.88;;;3.18
75273;BMP280;63869;52.344;16.928;2022-11-20T05:56:06;100263.91;;;3.16
75273;BMP280;63869;52.344;16.928;2022-11-20T05:58:33;100286.63;;;3.24
75273;BMP280;63869;52.344;16.928;2022-11-20T06:01:08;100281.34;;;3.24
75273;BMP280;63869;52.344;16.928;2022-11-20T06:03:34;100267.34;;;3.20
75273;BMP280;63869;52.344;16.928;2022-11-20T06:06:01;100280.56;;;3.24
75273;BMP280;63869;52.344;16.928;2022-11-20T06:08:26;100267.31;;;3.17
75273;BMP280;63869;52.344;16.928;2022-11-20T06:10:51;100277.94;;;3.24
75273;BMP280;63869;52.344;16.928;2022-11-20T06:13:17;100293.41;;;3.25
75273;BMP280;63869;52.344;16.928;2022-11-20T06:15:48;100212.84;;;2.75
75273;BMP280;63869;52.344;16.928;2022-11-20T06:18:13;100282.81;;;3.18
75273;BMP280;63869;52.344;16.928;2022-11-20T06:20:38;100299.88;;;3.28
75273;BMP280;63869;52.344;16.928;2022-11-20T06:23:04;100283.63;;;3.26
75273;BMP280;63869;52.344;16.928;2022-11-20T06:25:29;100287.41;;;3.28
75273;BMP280;63869;52.344;16.928;2022-11-20T06:27:54;100288.53;;;3.27
75273;BMP280;63869;52.344;16.928;2022-11-20T06:30:19;100278.69;;;3.24
75273;BMP280;63869;52.344;16.928;2022-11-20T06:32:45;100271.84;;;3.16
75273;BMP280;63869;52.344;16.928;2022-11-20T06:35:10;100283.66;;;3.29
75273;BMP280;63869;52.344;16.928;2022-11-20T06:37:35;100290.47;;;3.30
75273;BMP280;63869;52.344;16.928;2022-11-20T06:40:00;100269.25;;;3.20
75273;BMP280;63869;52.344;16.928;2022-11-20T06:42:26;100290.47;;;3.30
75273;BMP280;63869;52.344;16.928;2022-11-20T06:44:51;100280.22;;;3.25
75273;BMP280;63869;52.344;16.928;2022-11-20T06:47:16;100260.09;;;3.14
75273;BMP280;63869;52.344;16.928;2022-11-20T06:49:41;100261.34;;;3.23
75273;BMP280;63869;52.344;16.928;2022-11-20T06:52:07;100270.78;;;3.24
75273;BMP280;63869;52.344;16.928;2022-11-20T06:54:32;100263.19;;;3.19
75273;BMP280;63869;52.344;16.928;2022-11-20T06:56:57;100264.72;;;3.20
75273;BMP280;63869;52.344;16.928;2022-11-20T06:59:22;100279.13;;;3.30
75273;BMP280;63869;52.344;16.928;2022-11-20T07:01:48;100270.78;;;3.24
75273;BMP280;63869;52.344;16.928;2022-11-20T07:04:13;100265.88;;;3.26
75273;BMP280;63869;52.344;16.928;2022-11-20T07:06:38;100269.31;;;3.30
75273;BMP280;63869;52.344;16.928;2022-11-20T07:09:03;100253.03;;;2.91
75273;BMP280;63869;52.344;16.928;2022-11-20T07:11:29;100260.22;;;2.68
75273;BMP280;63869;52.344;16.928;2022-11-20T07:13:56;100246.91;;;2.34
75273;BMP280;63869;52.344;16.928;2022-11-20T07:16:21;100265.91;;;2.21
75273;BMP280;63869;52.344;16.928;2022-11-20T07:18:47;100231.06;;;1.85
75273;BMP280;63869;52.344;16.928;2022-11-20T07:21:12;100256.09;;;1.75
75273;BMP280;63869;52.344;16.928;2022-11-20T07:23:37;100257.78;;;1.64
75273;BMP280;63869;52.344;16.928;2022-11-20T07:26:08;100255.34;;;1.56
75273;BMP280;63869;52.344;16.928;2022-11-20T07:28:35;100245.91;;;1.35
75273;BMP280;63869;52.344;16.928;2022-11-20T07:31:00;100257.25;;;1.39
75273;BMP280;63869;52.344;16.928;2022-11-20T07:33:26;100269.06;;;1.45
75273;BMP280;63869;52.344;16.928;2022-11-20T07:35:51;100267.97;;;1.46
75273;BMP280;63869;52.344;16.928;2022-11-20T07:38:16;100263.81;;;1.45
75273;BMP280;63869;52.344;16.928;2022-11-20T07:40:42;100260.41;;;1.45
75273;BMP280;63869;52.344;16.928;2022-11-20T07:43:07;100241.06;;;1.37
75273;BMP280;63869;52.344;16.928;2022-11-20T07:45:32;100260.13;;;1.50
75273;BMP280;63869;52.344;16.928;2022-11-20T07:47:58;100251.47;;;1.49
75273;BMP280;63869;52.344;16.928;2022-11-20T07:50:23;100256.19;;;1.60
75273;BMP280;63869;52.344;16.928;2022-11-20T07:52:49;100244.78;;;1.56
75273;BMP280;63869;52.344;16.928;2022-11-20T07:55:14;100251.31;;;1.62
75273;BMP280;63869;52.344;16.928;2022-11-20T07:57:40;100251.75;;;1.64
75273;BMP280;63869;52.344;16.928;2022-11-20T08:00:07;100241.91;;;1.61
75273;BMP280;63869;52.344;16.928;2022-11-20T08:02:40;100258.25;;;1.70
75273;BMP280;63869;52.344;16.928;2022-11-20T08:05:06;100248.06;;;1.68
75273;BMP280;63869;52.344;16.928;2022-11-20T08:07:38;100233.72;;;1.66
75273;BMP280;63869;52.344;16.928;2022-11-20T08:10:05;100250.50;;;1.77
75273;BMP280;63869;52.344;16.928;2022-11-20T08:12:30;100240.31;;;1.75
75273;BMP280;63869;52.344;16.928;2022-11-20T08:15:14;100240.78;;;1.81
75273;BMP280;63869;52.344;16.928;2022-11-20T08:17:39;100249.84;;;1.83
75273;BMP280;63869;52.344;16.928;2022-11-20T08:20:05;100240.84;;;1.85
75273;BMP280;63869;52.344;16.928;2022-11-20T08:22:30;100245.81;;;1.90
75273;BMP280;63869;52.344;16.928;2022-11-20T08:24:56;100232.94;;;1.88
75273;BMP280;63869;52.344;16.928;2022-11-20T08:27:21;100223.16;;;1.85
75273;BMP280;63869;52.344;16.928;2022-11-20T08:29:46;100233.44;;;1.94
75273;BMP280;63869;52.344;16.928;2022-11-20T08:32:11;100222.78;;;1.87
75273;BMP280;63869;52.344;16.928;2022-11-20T08:34:37;100212.72;;;1.92
75273;BMP280;63869;52.344;16.928;2022-11-20T08:37:02;100207.50;;;1.96
75273;BMP280;63869;52.344;16.928;2022-11-20T08:39:28;100212.47;;;2.01
75273;BMP280;63869;52.344;16.928;2022-11-20T08:41:53;100212.41;;;1.97
75273;BMP280;63869;52.344;16.928;2022-11-20T08:44:18;100228.53;;;2.15
75273;BMP280;63869;52.344;16.928;2022-11-20T08:46:43;100211.91;;;2.11
75273;BMP280;63869;52.344;16.928;2022-11-20T08:49:11;100209.44;;;2.22
75273;BMP280;63869;52.344;16.928;2022-11-20T08:51:38;100197.34;;;2.21
75273;BMP280;63869;52.344;16.928;2022-11-20T08:54:04;100188.88;;;2.08
75273;BMP280;63869;52.344;16.928;2022-11-20T08:56:30;100199.31;;;2.24
75273;BMP280;63869;52.344;16.928;2022-11-20T08:58:56;100204.59;;;2.24
75273;BMP280;63869;52.344;16.928;2022-11-20T09:01:22;100201.53;;;2.22
75273;BMP280;63869;52.344;16.928;2022-11-20T09:03:49;100217.13;;;2.34
75273;BMP280;63869;52.344;16.928;2022-11-20T09:06:15;100216.16;;;2.42
75273;BMP280;63869;52.344;16.928;2022-11-20T09:08:40;100216.31;;;2.53
75273;BMP280;63869;52.344;16.928;2022-11-20T09:11:06;100219.47;;;2.65
75273;BMP280;63869;52.344;16.928;2022-11-20T09:13:33;100206.38;;;2.72
75273;BMP280;63869;52.344;16.928;2022-11-20T09:16:05;100173.09;;;2.64
75273;BMP280;63869;52.344;16.928;2022-11-20T09:18:31;100197.09;;;2.82
75273;BMP280;63869;52.344;16.928;2022-11-20T09:20:58;100209.22;;;2.87
75273;BMP280;63869;52.344;16.928;2022-11-20T09:23:23;100208.16;;;2.95
75273;BMP280;63869;52.344;16.928;2022-11-20T09:25:49;100204.91;;;3.05
75273;BMP280;63869;52.344;16.928;2022-11-20T09:28:14;100195.94;;;3.13
75273;BMP280;63869;52.344;16.928;2022-11-20T09:30:39;100208.53;;;3.23
75273;BMP280;63869;52.344;16.928;2022-11-20T09:33:06;100206.75;;;3.34
75273;BMP280;63869;52.344;16.928;2022-11-20T09:35:32;100200.72;;;3.34
75273;BMP280;63869;52.344;16.928;2022-11-20T09:37:57;100203.78;;;3.39
75273;BMP280;63869;52.344;16.928;2022-11-20T09:40:25;100204.84;;;3.31
75273;BMP280;63869;52.344;16.928;2022-11-20T09:54:07;100196.84;;;4.09
75273;BMP280;63869;52.344;16.928;2022-11-20T09:56:37;100193.91;;;4.25
75273;BMP280;63869;52.344;16.928;2022-11-20T09:59:06;100181.84;;;4.27
75273;BMP280;63869;52.344;16.928;2022-11-20T10:01:35;100183.31;;;4.21
75273;BMP280;63869;52.344;16.928;2022-11-20T10:04:12;100193.13;;;4.21
75273;BMP280;63869;52.344;16.928;2022-11-20T10:06:50;100195.88;;;4.35
75273;BMP280;63869;52.344;16.928;2022-11-20T10:09:26;100174.28;;;4.26
75273;BMP280;63869;52.344;16.928;2022-11-20T10:12:06;100191.75;;;4.41
75273;BMP280;63869;52.344;16.928;2022-11-20T10:17:24;100191.00;;;4.37
75273;BMP280;63869;52.344;16.928;2022-11-20T10:20:20;100167.81;;;4.16
75273;BMP280;63869;52.344;16.928;2022-11-20T10:25:58;100173.56;;;4.29
75273;BMP280;63869;52.344;16.928;2022-11-20T10:31:34;100153.94;;;4.37
75273;BMP280;63869;52.344;16.928;2022-11-20T10:34:06;100171.41;;;4.52
75273;BMP280;63869;52.344;16.928;2022-11-20T10:36:44;100160.81;;;4.52
75273;BMP280;63869;52.344;16.928;2022-11-20T10:39:32;100166.16;;;4.63
75273;BMP280;63869;52.344;16.928;2022-11-20T10:41:59;100160.13;;;4.66
75273;BMP280;63869;52.344;16.928;2022-11-20T10:44:29;100163.91;;;4.65
75273;BMP280;63869;52.344;16.928;2022-11-20T10:47:16;100105.84;;;4.21
75273;BMP280;63869;52.344;16.928;2022-11-20T10:49:43;100144.91;;;4.42
75273;BMP280;63869;52.344;16.928;2022-11-20T10:52:13;100158.19;;;4.59
75273;BMP280;63869;52.344;16.928;2022-11-20T11:00:23;100129.53;;;3.99
75273;BMP280;63869;52.344;16.928;2022-11-20T11:02:53;100161.69;;;4.09
75273;BMP280;63869;52.344;16.928;2022-11-20T11:08:03;100163.56;;;4.08
75273;BMP280;63869;52.344;16.928;2022-11-20T11:10:40;100140.06;;;3.96
75273;BMP280;63869;52.344;16.928;2022-11-20T11:13:07;100157.44;;;3.93
75273;BMP280;63869;52.344;16.928;2022-11-20T11:15:40;100166.06;;;3.83
75273;BMP280;63869;52.344;16.928;2022-11-20T11:18:10;100162.56;;;3.72
75273;BMP280;63869;52.344;16.928;2022-11-20T11:20:35;100145.72;;;3.47
75273;BMP280;63869;52.344;16.928;2022-11-20T11:23:01;100163.13;;;3.48
75273;BMP280;63869;52.344;16.928;2022-11-20T11:25:32;100149.00;;;3.33
75273;BMP280;63869;52.344;16.928;2022-11-20T11:28:04;100138.25;;;3.15
75273;BMP280;63869;52.344;16.928;2022-11-20T11:30:41;100159.59;;;3.36
75273;BMP280;63869;52.344;16.928;2022-11-20T11:33:11;100145.59;;;3.32
75273;BMP280;63869;52.344;16.928;2022-11-20T11:35:47;100141.50;;;3.38
75273;BMP280;63869;52.344;16.928;2022-11-20T11:38:16;100145.59;;;3.32
75273;BMP280;63869;52.344;16.928;2022-11-20T11:40:43;100154.00;;;3.42
75273;BMP280;63869;52.344;16.928;2022-11-20T11:43:19;100141.50;;;3.38
75273;BMP280;63869;52.344;16.928;2022-11-20T11:48:39;100149.56;;;3.53
75273;BMP280;63869;52.344;16.928;2022-11-20T11:51:08;100118.59;;;3.50
75273;BMP280;63869;52.344;16.928;2022-11-20T11:53:39;100138.78;;;3.72
75273;BMP280;63869;52.344;16.928;2022-11-20T11:56:09;100124.78;;;3.68
75273;BMP280;63869;52.344;16.928;2022-11-20T11:58:50;100113.00;;;3.62
75273;BMP280;63869;52.344;16.928;2022-11-20T12:04:14;100129.28;;;3.64
75273;BMP280;63869;52.344;16.928;2022-11-20T12:06:50;100130.00;;;3.61
75273;BMP280;63869;52.344;16.928;2022-11-20T12:09:18;100114.44;;;3.52
75273;BMP280;63869;52.344;16.928;2022-11-20T12:11:58;100120.09;;;3.51
75273;BMP280;63869;52.344;16.928;2022-11-20T12:16:57;100059.09;;;3.19
75273;BMP280;63869;52.344;16.928;2022-11-20T12:19:22;100096.53;;;3.31
75273;BMP280;63869;52.344;16.928;2022-11-20T12:22:05;100120.09;;;3.47
75273;BMP280;63869;52.344;16.928;2022-11-20T12:25:10;100120.09;;;3.51
75273;BMP280;63869;52.344;16.928;2022-11-20T12:30:18;100107.94;;;3.43
75273;BMP280;63869;52.344;16.928;2022-11-20T12:33:18;100103.50;;;3.50
75273;BMP280;63869;52.344;16.928;2022-11-20T12:36:06;100102.00;;;3.53
75273;BMP280;63869;52.344;16.928;2022-11-20T12:47:54;100084.91;;;3.39
75273;BMP280;63869;52.344;16.928;2022-11-20T12:50:40;100087.94;;;3.42
75273;BMP280;63869;52.344;16.928;2022-11-20T12:56:17;100086.53;;;3.55
75273;BMP280;63869;52.344;16.928;2022-11-20T13:01:24;100076.34;;;3.53
75273;BMP280;63869;52.344;16.928;2022-11-20T13:06:51;100067.28;;;3.54
75273;BMP280;63869;52.344;16.928;2022-11-20T13:09:19;100075.69;;;3.63
75273;BMP280;63869;52.344;16.928;2022-11-20T13:12:06;100054.44;;;3.53
75273;BMP280;63869;52.344;16.928;2022-11-20T13:14:47;100072.69;;;3.68
75273;BMP280;63869;52.344;16.928;2022-11-20T13:17:24;100075.31;;;3.68
75273;BMP280;63869;52.344;16.928;2022-11-20T13:19:54;100051.84;;;3.60
75273;BMP280;63869;52.344;16.928;2022-11-20T13:25:28;100052.56;;;3.57
75273;BMP280;63869;52.344;16.928;2022-11-20T13:27:56;100059.38;;;3.58
75273;BMP280;63869;52.344;16.928;2022-11-20T13:30:26;100064.34;;;3.63
75273;BMP280;63869;52.344;16.928;2022-11-20T13:33:09;100050.28;;;3.55
75273;BMP280;63869;52.344;16.928;2022-11-20T13:35:56;100064.34;;;3.63
75273;BMP280;63869;52.344;16.928;2022-11-20T13:38:21;100046.91;;;3.55
75273;BMP280;63869;52.344;16.928;2022-11-20T13:40:58;100039.31;;;3.50
75273;BMP280;63869;52.344;16.928;2022-11-20T13:43:40;100044.59;;;3.50
75273;BMP280;63869;52.344;16.928;2022-11-20T13:46:08;100047.66;;;3.55
75273;BMP280;63869;52.344;16.928;2022-11-20T13:48:39;100052.16;;;3.48
75273;BMP280;63869;52.344;16.928;2022-11-20T13:53:52;100056.31;;;3.52
75273;BMP280;63869;52.344;16.928;2022-11-20T13:59:51;100049.84;;;3.43
75273;BMP280;63869;52.344;16.928;2022-11-20T14:02:20;100048.28;;;3.34
75273;BMP280;63869;52.344;16.928;2022-11-20T14:04:52;100021.00;;;3.20
75273;BMP280;63869;52.344;16.928;2022-11-20T14:07:21;100031.28;;;3.32
75273;BMP280;63869;52.344;16.928;2022-11-20T14:09:56;100047.56;;;3.41
75273;BMP280;63869;52.344;16.928;2022-11-20T14:12:28;100036.94;;;3.34
75273;BMP280;63869;52.344;16.928;2022-11-20T14:14:54;100014.22;;;3.26
75273;BMP280;63869;52.344;16.928;2022-11-20T14:17:29;100034.34;;;3.41
75273;BMP280;63869;52.344;16.928;2022-11-20T14:19:59;100008.56;;;3.20
75273;BMP280;63869;52.344;16.928;2022-11-20T14:22:26;100042.28;;;3.41
75273;BMP280;63869;52.344;16.928;2022-11-20T14:27:38;100021.78;;;3.27
75273;BMP280;63869;52.344;16.928;2022-11-20T14:30:05;100026.31;;;3.30
75273;BMP280;63869;52.344;16.928;2022-11-20T14:32:31;100000.50;;;3.06
75273;BMP280;63869;52.344;16.928;2022-11-20T14:35:02;100005.81;;;3.10
75273;BMP280;63869;52.344;16.928;2022-11-20T14:37:37;100020.53;;;3.14
75273;BMP280;63869;52.344;16.928;2022-11-20T14:40:20;100025.03;;;3.10
75273;BMP280;63869;52.344;16.928;2022-11-20T14:42:46;100016.97;;;2.96
75273;BMP280;63869;52.344;16.928;2022-11-20T14:45:12;100023.84;;;3.00
75273;BMP280;63869;52.344;16.928;2022-11-20T14:47:37;100026.16;;;3.09
75273;BMP280;63869;52.344;16.928;2022-11-20T14:50:03;100020.50;;;3.07
75273;BMP280;63869;52.344;16.928;2022-11-20T14:52:29;99996.97;;;2.91
75273;BMP280;63869;52.344;16.928;2022-11-20T14:54:57;100006.41;;;2.96
75273;BMP280;63869;52.344;16.928;2022-11-20T14:57:30;100018.59;;;3.04
75273;BMP280;63869;52.344;16.928;2022-11-20T15:02:41;100015.16;;;3.00
75273;BMP280;63869;52.344;16.928;2022-11-20T15:05:07;99995.75;;;2.82
75273;BMP280;63869;52.344;16.928;2022-11-20T15:07:39;100009.81;;;2.93
75273;BMP280;63869;52.344;16.928;2022-11-20T15:12:40;100007.41;;;2.81
75273;BMP280;63869;52.344;16.928;2022-11-20T15:15:12;100015.66;;;2.75
75273;BMP280;63869;52.344;16.928;2022-11-20T15:17:40;99996.66;;;2.59
75273;BMP280;63869;52.344;16.928;2022-11-20T15:20:13;99982.59;;;2.48
75273;BMP280;63869;52.344;16.928;2022-11-20T15:22:39;100015.94;;;2.67